Time;durP1;ratioP1;P1;durP2;ratioP2;P2;SDS_P1;SDS_P2;PMS_P1;PMS_P2;Temp;Humidity;BMP_temperature;BMP_pressure;BME280_temperature;BME280_humidity;BME280_pressure;Samples;Min_cycle;Max_cycle;Signal;HPM_P1;HPM_P2
2023/06/10 00:01:46;;;;;;;11.23;4.80;;;21.00;99.90;;;;;;4953659;29;20070;-74
2023/06/10 00:04:16;;;;;;;15.07;5.25;;;20.90;99.90;;;;;;4950962;29;20042;-77
2023/06/10 00:06:49;;;;;;;11.32;5.28;;;20.90;99.90;;;;;;4952819;29;20340;-75
2023/06/10 00:09:15;;;;;;;12.18;5.75;;;20.90;99.90;;;;;;4951009;29;20035;-77
2023/06/10 00:11:42;;;;;;;11.55;4.38;;;20.90;99.90;;;;;;4952839;29;20522;-74
2023/06/10 00:14:08;;;;;;;12.10;4.80;;;20.80;99.90;;;;;;4952794;29;20027;-73
2023/06/10 00:16:35;;;;;;;12.90;5.15;;;20.80;99.90;;;;;;4953118;29;20051;-73
2023/06/10 00:19:02;;;;;;;10.45;4.93;;;20.80;99.90;;;;;;4950394;29;20028;-73
2023/06/10 00:21:28;;;;;;;12.38;4.90;;;20.80;99.90;;;;;;4952902;29;20063;-74
2023/06/10 00:23:55;;;;;;;12.70;5.25;;;20.80;99.90;;;;;;4953038;29;20474;-74
2023/06/10 00:26:21;;;;;;;13.23;4.60;;;20.70;99.90;;;;;;4950248;29;20046;-73
2023/06/10 00:28:47;;;;;;;11.05;5.28;;;20.70;99.90;;;;;;4952616;29;20027;-74
2023/06/10 00:31:13;;;;;;;12.07;4.85;;;20.70;99.90;;;;;;4952254;28;20057;-74
2023/06/10 00:33:38;;;;;;;14.10;5.45;;;20.70;99.90;;;;;;4952685;29;20027;-75
2023/06/10 00:36:04;;;;;;;16.05;5.10;;;20.60;99.90;;;;;;4952813;29;20020;-73
2023/06/10 00:38:30;;;;;;;11.60;5.13;;;20.60;99.90;;;;;;4952494;28;20031;-73
2023/06/10 00:40:55;;;;;;;14.50;5.68;;;20.50;99.90;;;;;;4953337;29;20027;-74
2023/06/10 00:43:21;;;;;;;12.00;4.78;;;20.50;99.90;;;;;;4953656;29;20097;-73
2023/06/10 00:45:46;;;;;;;12.60;5.00;;;20.40;99.90;;;;;;4953962;29;20031;-75
2023/06/10 00:48:12;;;;;;;14.35;5.00;;;20.50;99.90;;;;;;4953838;29;20050;-75
2023/06/10 00:50:39;;;;;;;9.20;4.35;;;20.40;99.90;;;;;;4952041;29;20038;-76
2023/06/10 00:53:06;;;;;;;13.85;5.00;;;20.40;99.90;;;;;;4940132;29;20090;-73
2023/06/10 00:55:32;;;;;;;11.95;4.70;;;20.40;99.90;;;;;;4953952;29;20046;-75
2023/06/10 00:57:59;;;;;;;12.07;5.35;;;20.30;99.90;;;;;;4955307;28;20031;-74
2023/06/10 01:00:25;;;;;;;9.63;4.55;;;20.30;99.90;;;;;;4957647;28;20115;-74
2023/06/10 01:02:52;;;;;;;10.57;4.95;;;20.20;99.90;;;;;;4957695;29;20034;-73
2023/06/10 01:05:18;;;;;;;10.43;5.10;;;20.20;99.90;;;;;;4957699;29;20027;-73
2023/06/10 01:08:10;;;;;;;13.57;5.32;;;20.20;99.90;;;;;;4957534;29;20035;-74
2023/06/10 01:10:43;;;;;;;11.20;4.88;;;20.20;99.90;;;;;;4944994;29;20510;-73
2023/06/10 01:13:14;;;;;;;12.82;4.78;;;20.10;99.90;;;;;;4943930;29;20435;-73
2023/06/10 01:15:40;;;;;;;11.77;4.97;;;20.10;99.90;;;;;;4947564;29;20067;-75
2023/06/10 01:18:10;;;;;;;13.68;5.72;;;20.10;99.90;;;;;;4951657;29;20063;-74
2023/06/10 01:20:39;;;;;;;11.85;4.78;;;20.00;99.90;;;;;;4941750;29;20035;-73
2023/06/10 01:23:06;;;;;;;11.65;5.05;;;20.00;99.90;;;;;;4951886;29;20019;-73
2023/06/10 01:25:36;;;;;;;12.25;5.30;;;20.00;99.90;;;;;;4947106;29;20031;-74
2023/06/10 01:28:10;;;;;;;10.02;4.97;;;20.00;99.90;;;;;;4944476;29;20035;-74
2023/06/10 01:30:48;;;;;;;11.68;4.20;;;19.90;99.90;;;;;;4953866;29;20110;-75
2023/06/10 01:33:24;;;;;;;13.50;5.50;;;19.90;99.90;;;;;;4944571;29;20027;-76
2023/06/10 01:35:51;;;;;;;13.00;4.30;;;19.90;99.90;;;;;;4946214;29;20094;-75
2023/06/10 01:38:19;;;;;;;15.20;4.90;;;19.90;99.90;;;;;;4952694;29;20055;-75
2023/06/10 01:40:46;;;;;;;12.40;5.20;;;19.80;99.90;;;;;;4941447;29;20035;-75
2023/06/10 01:43:12;;;;;;;12.95;5.35;;;19.80;99.90;;;;;;4950763;29;20064;-74
2023/06/10 01:45:37;;;;;;;11.27;4.85;;;19.80;99.90;;;;;;4947865;29;20046;-73
2023/06/10 01:48:03;;;;;;;9.75;4.78;;;19.80;99.90;;;;;;4943833;29;20114;-74
2023/06/10 01:50:29;;;;;;;12.10;5.35;;;19.80;99.90;;;;;;4953409;29;20489;-73
2023/06/10 01:52:54;;;;;;;12.27;5.55;;;19.80;99.90;;;;;;4953093;29;20106;-73
2023/06/10 01:55:20;;;;;;;11.70;5.07;;;19.70;99.90;;;;;;4945057;29;20035;-77
2023/06/10 01:57:45;;;;;;;11.13;4.78;;;19.70;99.90;;;;;;4945820;29;20032;-73
2023/06/10 02:00:11;;;;;;;10.68;4.30;;;19.70;99.90;;;;;;4951474;29;20042;-73
2023/06/10 02:02:37;;;;;;;10.13;4.72;;;19.60;99.90;;;;;;4940434;29;20114;-73
2023/06/10 02:05:03;;;;;;;10.02;4.63;;;19.60;99.90;;;;;;4951604;29;20155;-72
2023/06/10 02:07:28;;;;;;;10.15;4.22;;;19.60;99.90;;;;;;4937350;29;20430;-74
2023/06/10 02:09:54;;;;;;;8.43;4.20;;;19.60;99.90;;;;;;4936822;29;20041;-73
2023/06/10 02:12:20;;;;;;;11.30;4.72;;;19.60;99.90;;;;;;4937410;29;20028;-75
2023/06/10 02:14:45;;;;;;;12.60;4.80;;;19.60;99.90;;;;;;4937121;29;20109;-76
2023/06/10 02:17:12;;;;;;;12.52;5.18;;;19.60;99.90;;;;;;4937440;29;20044;-75
2023/06/10 02:19:42;;;;;;;15.13;5.43;;;19.60;99.90;;;;;;4937369;29;20110;-75
2023/06/10 02:22:08;;;;;;;13.90;4.95;;;19.50;99.90;;;;;;4937248;29;20032;-75
2023/06/10 02:24:33;;;;;;;13.82;4.78;;;19.50;99.90;;;;;;4937276;29;20114;-75
2023/06/10 02:27:00;;;;;;;14.63;5.25;;;19.50;99.90;;;;;;4937182;29;20119;-74
2023/06/10 02:29:25;;;;;;;11.23;4.90;;;19.50;99.90;;;;;;4937396;29;20470;-75
2023/06/10 02:31:52;;;;;;;14.38;5.60;;;19.50;99.90;;;;;;4936789;29;20023;-73
2023/06/10 02:34:18;;;;;;;10.43;4.95;;;19.50;99.90;;;;;;4937136;29;20032;-74
2023/06/10 02:36:44;;;;;;;13.15;5.10;;;19.50;99.90;;;;;;4919883;29;20038;-73
2023/06/10 02:39:09;;;;;;;9.65;4.78;;;19.40;99.90;;;;;;4937277;29;20040;-74
2023/06/10 02:41:35;;;;;;;14.25;5.55;;;19.40;99.90;;;;;;4936919;29;20064;-77
2023/06/10 02:44:00;;;;;;;9.88;4.63;;;19.40;99.90;;;;;;4936975;29;20072;-73
2023/06/10 02:46:28;;;;;;;11.73;5.00;;;19.40;99.90;;;;;;4936794;29;20096;-77
2023/06/10 02:48:54;;;;;;;11.88;4.97;;;19.40;99.90;;;;;;4950799;29;20023;-72
2023/06/10 02:51:20;;;;;;;11.40;4.60;;;19.40;99.90;;;;;;4956002;29;20037;-73
2023/06/10 02:53:46;;;;;;;14.93;4.93;;;19.40;99.90;;;;;;4956036;29;20039;-75
2023/06/10 02:56:12;;;;;;;12.02;5.05;;;19.30;99.90;;;;;;4955602;29;20035;-73
2023/06/10 02:58:38;;;;;;;11.05;4.95;;;19.30;99.90;;;;;;4956136;29;20038;-74
2023/06/10 03:01:03;;;;;;;10.00;4.80;;;19.30;99.90;;;;;;4955623;29;20043;-75
2023/06/10 03:03:30;;;;;;;13.07;5.53;;;19.30;99.90;;;;;;4956093;29;20384;-76
2023/06/10 03:05:56;;;;;;;11.95;5.20;;;19.20;99.90;;;;;;4955750;29;20024;-75
2023/06/10 03:08:22;;;;;;;12.88;5.15;;;19.20;99.90;;;;;;4955740;29;20035;-74
2023/06/10 03:10:47;;;;;;;14.02;5.15;;;19.20;99.90;;;;;;4955584;29;20086;-73
2023/06/10 03:13:14;;;;;;;14.77;5.43;;;19.20;99.90;;;;;;4955563;29;20427;-76
2023/06/10 03:15:40;;;;;;;13.02;5.13;;;19.20;99.90;;;;;;4954521;29;20050;-74
2023/06/10 03:18:06;;;;;;;11.27;5.20;;;19.10;99.90;;;;;;4955454;29;20034;-73
2023/06/10 03:20:37;;;;;;;15.80;5.60;;;19.10;99.90;;;;;;4955447;28;20024;-75
2023/06/10 03:23:05;;;;;;;13.95;5.05;;;19.10;99.90;;;;;;4955397;29;20027;-75
2023/06/10 03:25:30;;;;;;;14.60;5.03;;;19.10;99.90;;;;;;4955499;29;20033;-75
2023/06/10 03:27:56;;;;;;;12.43;5.30;;;19.00;99.90;;;;;;4955114;29;20051;-75
2023/06/10 03:30:21;;;;;;;11.60;4.95;;;19.00;99.90;;;;;;4954775;29;20063;-73
2023/06/10 03:32:48;;;;;;;10.95;4.95;;;19.00;99.90;;;;;;4953843;29;20364;-75
2023/06/10 03:35:14;;;;;;;13.98;5.18;;;19.10;99.90;;;;;;4955017;29;20066;-73
2023/06/10 03:37:40;;;;;;;15.20;5.43;;;19.10;99.90;;;;;;4954962;29;20435;-74
2023/06/10 03:40:08;;;;;;;11.02;4.93;;;19.00;99.90;;;;;;4955150;29;20102;-73
2023/06/10 03:42:34;;;;;;;14.15;5.22;;;19.00;99.90;;;;;;4954775;29;20454;-75
2023/06/10 03:44:59;;;;;;;18.10;5.65;;;19.00;99.90;;;;;;4955094;29;20051;-76
2023/06/10 03:47:25;;;;;;;13.40;5.53;;;19.00;99.90;;;;;;4954918;29;20372;-75
2023/06/10 03:49:51;;;;;;;13.23;5.50;;;19.10;99.90;;;;;;4955138;29;20040;-75
2023/06/10 03:52:17;;;;;;;10.35;4.32;;;19.10;99.90;;;;;;4954786;29;20375;-75
2023/06/10 03:54:43;;;;;;;13.60;5.30;;;19.10;99.90;;;;;;4955362;29;20197;-73
2023/06/10 03:57:08;;;;;;;10.98;5.32;;;19.10;99.90;;;;;;4954736;29;20122;-75
2023/06/10 03:59:34;;;;;;;9.20;4.68;;;19.10;99.90;;;;;;4954412;29;20410;-76
2023/06/10 04:02:01;;;;;;;10.13;4.47;;;19.10;99.90;;;;;;4954745;29;20047;-74
2023/06/10 04:04:26;;;;;;;13.98;5.47;;;19.10;99.90;;;;;;4954720;29;20181;-74
2023/06/10 04:06:52;;;;;;;14.43;5.50;;;19.10;99.90;;;;;;4954870;29;20121;-76
2023/06/10 04:09:18;;;;;;;12.80;5.13;;;19.20;99.90;;;;;;4954734;29;20027;-73
2023/06/10 04:11:44;;;;;;;15.07;5.43;;;19.20;99.90;;;;;;4954444;29;20027;-74
2023/06/10 04:14:09;;;;;;;12.25;5.22;;;19.20;99.90;;;;;;4954845;29;20480;-73
2023/06/10 04:16:35;;;;;;;14.32;5.70;;;19.20;99.90;;;;;;4954871;29;20514;-74
2023/06/10 04:19:01;;;;;;;12.30;5.40;;;19.20;99.90;;;;;;4937534;29;20460;-77
2023/06/10 04:21:27;;;;;;;15.80;5.80;;;19.30;99.90;;;;;;4954785;29;20027;-74
2023/06/10 04:23:53;;;;;;;14.07;5.68;;;19.30;99.90;;;;;;4954317;29;20042;-75
2023/06/10 04:26:18;;;;;;;11.95;5.30;;;19.40;99.90;;;;;;4954122;29;20460;-74
2023/06/10 04:28:44;;;;;;;16.55;6.07;;;19.40;99.90;;;;;;4954397;29;20102;-74
2023/06/10 04:31:10;;;;;;;11.25;5.50;;;19.40;99.90;;;;;;4954993;29;20468;-75
2023/06/10 04:33:36;;;;;;;14.10;5.13;;;19.50;99.90;;;;;;4954233;28;20023;-76
2023/06/10 04:36:01;;;;;;;17.42;6.40;;;19.50;99.90;;;;;;4954514;29;20404;-73
2023/06/10 04:38:27;;;;;;;13.05;5.40;;;19.60;99.90;;;;;;4955034;29;20031;-73
2023/06/10 04:40:52;;;;;;;12.73;5.45;;;19.70;99.90;;;;;;4954223;29;20035;-73
2023/06/10 04:43:18;;;;;;;11.77;5.28;;;19.70;99.90;;;;;;4954714;29;20642;-77
2023/06/10 04:45:46;;;;;;;11.60;5.63;;;19.80;99.90;;;;;;4937217;29;20032;-74
2023/06/10 04:48:13;;;;;;;15.23;6.28;;;19.80;99.90;;;;;;4953920;29;20149;-75
2023/06/10 04:50:38;;;;;;;13.00;5.47;;;19.90;99.90;;;;;;4954027;29;20035;-74
2023/06/10 04:53:04;;;;;;;11.38;5.55;;;20.00;99.90;;;;;;4954050;29;20038;-75
2023/06/10 04:55:30;;;;;;;13.07;5.78;;;20.00;99.90;;;;;;4954394;29;20509;-78
2023/06/10 04:57:55;;;;;;;14.40;5.68;;;20.10;99.90;;;;;;4954654;29;20107;-75
2023/06/10 05:00:21;;;;;;;11.88;5.22;;;20.20;99.90;;;;;;4954124;29;20027;-76
2023/06/10 05:02:51;;;;;;;11.75;5.88;;;20.30;99.90;;;;;;4954319;29;20031;-75
2023/06/10 05:05:18;;;;;;;13.90;5.95;;;20.30;99.90;;;;;;4954268;29;20111;-75
2023/06/10 05:07:43;;;;;;;15.20;6.28;;;20.40;99.90;;;;;;4953834;29;20039;-76
2023/06/10 05:10:09;;;;;;;17.55;6.03;;;20.50;99.90;;;;;;4954276;29;20041;-75
2023/06/10 05:12:35;;;;;;;14.27;5.88;;;20.60;99.90;;;;;;4954298;29;20027;-75
2023/06/10 05:15:01;;;;;;;16.42;5.70;;;20.70;99.90;;;;;;4954264;29;20452;-76
2023/06/10 05:17:27;;;;;;;12.63;6.03;;;20.80;99.80;;;;;;4954038;29;20066;-76
2023/06/10 05:19:52;;;;;;;14.60;6.97;;;20.90;99.60;;;;;;4954333;29;20031;-73
2023/06/10 05:22:18;;;;;;;11.35;5.65;;;21.10;99.50;;;;;;4954036;29;20042;-74
2023/06/10 05:24:44;;;;;;;11.23;5.22;;;21.30;99.40;;;;;;4954287;29;20052;-76
2023/06/10 05:27:10;;;;;;;14.50;6.35;;;21.50;99.00;;;;;;4953881;29;20043;-77
2023/06/10 05:29:36;;;;;;;12.65;5.45;;;21.90;98.70;;;;;;4954262;29;20034;-75
2023/06/10 05:32:03;;;;;;;12.88;5.93;;;22.30;97.90;;;;;;4954545;29;20032;-75
2023/06/10 05:34:31;;;;;;;12.43;5.43;;;22.80;97.40;;;;;;4954339;29;20610;-76
2023/06/10 05:36:57;;;;;;;12.45;6.13;;;23.30;96.70;;;;;;4953264;29;20475;-76
2023/06/10 05:39:23;;;;;;;14.32;6.03;;;23.90;95.70;;;;;;4952652;29;20041;-74
2023/06/10 05:41:48;;;;;;;10.95;5.40;;;24.30;95.00;;;;;;4953087;29;20138;-76
2023/06/10 05:44:14;;;;;;;12.13;5.50;;;24.70;94.40;;;;;;4953837;28;20034;-76
2023/06/10 05:46:40;;;;;;;11.60;5.85;;;25.10;94.00;;;;;;4956964;29;20057;-76
2023/06/10 05:49:05;;;;;;;13.95;5.70;;;25.40;93.40;;;;;;4956879;29;20110;-76
2023/06/10 05:51:31;;;;;;;10.32;5.43;;;25.70;92.90;;;;;;4956743;29;20039;-76
2023/06/10 05:53:56;;;;;;;13.35;5.38;;;26.00;92.40;;;;;;4956745;29;20026;-75
2023/06/10 05:56:22;;;;;;;10.40;5.22;;;26.30;92.00;;;;;;4957819;29;20035;-74
2023/06/10 05:58:48;;;;;;;13.90;5.70;;;26.60;91.70;;;;;;4957461;29;20038;-76
2023/06/10 06:01:15;;;;;;;11.57;5.65;;;26.80;91.30;;;;;;4957343;29;20039;-76
2023/06/10 06:03:40;;;;;;;12.80;6.05;;;27.30;91.00;;;;;;4957402;29;20534;-74
2023/06/10 06:06:06;;;;;;;12.13;5.30;;;27.70;90.50;;;;;;4957255;29;20034;-73
2023/06/10 06:08:32;;;;;;;10.25;5.68;;;28.40;90.00;;;;;;4957074;29;20102;-74
2023/06/10 06:10:57;;;;;;;10.70;5.38;;;29.00;88.50;;;;;;4938735;29;20028;-75
2023/06/10 06:13:23;;;;;;;13.68;5.65;;;29.40;87.20;;;;;;4957053;29;20027;-74
2023/06/10 06:15:49;;;;;;;9.95;5.35;;;29.70;86.30;;;;;;4956648;28;20122;-74
2023/06/10 06:18:15;;;;;;;11.48;5.75;;;30.10;85.30;;;;;;4956995;29;20036;-73
2023/06/10 06:20:40;;;;;;;12.20;5.93;;;30.30;84.30;;;;;;4942898;29;20042;-73
2023/06/10 06:23:08;;;;;;;11.63;5.07;;;30.30;83.80;;;;;;4937178;29;20032;-75
2023/06/10 06:25:35;;;;;;;16.70;6.22;;;30.80;83.00;;;;;;4952157;29;20038;-73
2023/06/10 06:28:01;;;;;;;14.48;5.90;;;31.10;81.70;;;;;;4956682;29;20039;-75
2023/06/10 06:30:27;;;;;;;11.15;5.43;;;31.20;81.40;;;;;;4956076;29;20483;-75
2023/06/10 06:32:52;;;;;;;13.38;5.43;;;31.20;81.10;;;;;;4939534;29;20042;-74
2023/06/10 06:35:18;;;;;;;13.63;5.28;;;31.20;81.10;;;;;;4956213;29;20078;-74
2023/06/10 06:37:44;;;;;;;12.35;5.82;;;31.40;80.40;;;;;;4956396;29;20392;-75
2023/06/10 06:40:10;;;;;;;10.68;5.22;;;31.50;80.30;;;;;;4956453;29;20035;-74
2023/06/10 06:42:35;;;;;;;14.25;5.93;;;31.80;79.80;;;;;;4956556;29;20066;-73
2023/06/10 06:45:01;;;;;;;12.85;5.65;;;32.10;79.80;;;;;;4956324;29;20079;-74
2023/06/10 06:47:27;;;;;;;10.90;5.88;;;32.40;78.50;;;;;;4956527;29;20071;-73
2023/06/10 06:49:52;;;;;;;9.45;5.20;;;32.50;78.20;;;;;;4955980;29;20464;-75
2023/06/10 06:52:19;;;;;;;11.80;5.32;;;32.60;77.30;;;;;;4956257;29;20073;-75
2023/06/10 06:54:44;;;;;;;11.65;5.60;;;32.80;77.60;;;;;;4945705;29;20119;-74
2023/06/10 06:57:10;;;;;;;11.43;5.40;;;33.10;77.10;;;;;;4937029;29;20448;-75
2023/06/10 06:59:36;;;;;;;13.25;5.20;;;33.20;76.90;;;;;;4937231;29;20026;-73
2023/06/10 07:02:02;;;;;;;13.35;5.88;;;33.10;76.60;;;;;;4936180;29;20075;-74
2023/06/10 07:04:27;;;;;;;13.50;5.60;;;33.10;76.40;;;;;;4948789;29;20035;-75
2023/06/10 07:06:53;;;;;;;10.77;5.40;;;33.40;76.00;;;;;;4955961;29;20051;-73
2023/06/10 07:09:18;;;;;;;10.02;5.50;;;33.70;75.60;;;;;;4955990;29;20120;-74
2023/06/10 07:11:44;;;;;;;11.00;5.43;;;33.80;74.80;;;;;;4955690;29;20110;-74
2023/06/10 07:14:09;;;;;;;11.77;5.38;;;33.90;75.50;;;;;;4956387;29;20440;-73
2023/06/10 07:16:35;;;;;;;10.38;5.53;;;34.00;74.40;;;;;;4955622;29;20046;-75
2023/06/10 07:19:00;;;;;;;9.93;5.85;;;34.00;74.00;;;;;;4955705;29;20046;-75
2023/06/10 07:21:28;;;;;;;13.15;5.60;;;33.90;74.10;;;;;;4955409;29;20114;-73
2023/06/10 07:23:54;;;;;;;10.25;5.30;;;33.70;74.10;;;;;;4955806;29;20024;-74
2023/06/10 07:26:21;;;;;;;14.43;5.53;;;33.60;74.20;;;;;;4954535;29;20031;-73
2023/06/10 07:28:46;;;;;;;9.20;5.20;;;33.40;74.10;;;;;;4952599;29;20078;-75
2023/06/10 07:31:12;;;;;;;11.05;5.10;;;33.10;74.20;;;;;;4954865;29;20050;-75
2023/06/10 07:33:41;;;;;;;11.82;5.75;;;33.00;74.50;;;;;;4952468;29;20106;-75
2023/06/10 07:36:07;;;;;;;13.60;5.82;;;33.00;74.40;;;;;;4954718;29;20066;-76
2023/06/10 07:38:32;;;;;;;10.70;4.93;;;33.30;74.20;;;;;;4936432;29;20063;-73
2023/06/10 07:40:58;;;;;;;11.75;5.47;;;33.30;73.40;;;;;;4936398;29;20036;-73
2023/06/10 07:43:24;;;;;;;10.13;5.07;;;32.80;74.10;;;;;;4955210;29;20082;-74
2023/06/10 07:45:49;;;;;;;10.10;5.53;;;32.70;74.50;;;;;;4955413;29;20028;-73
2023/06/10 07:48:15;;;;;;;12.10;5.32;;;32.80;74.30;;;;;;4954690;29;20089;-73
2023/06/10 07:50:41;;;;;;;10.18;5.38;;;33.00;74.30;;;;;;4955144;29;20031;-76
2023/06/10 07:53:06;;;;;;;13.80;5.50;;;33.20;74.40;;;;;;4954811;29;20043;-77
2023/06/10 07:55:32;;;;;;;11.57;5.10;;;33.00;74.20;;;;;;4955257;29;20042;-76
2023/06/10 07:57:57;;;;;;;11.32;5.30;;;32.60;74.30;;;;;;4955101;29;20039;-74
2023/06/10 08:00:23;;;;;;;8.77;5.13;;;32.20;74.80;;;;;;4938001;29;20027;-77
2023/06/10 08:02:49;;;;;;;12.50;5.95;;;31.90;75.30;;;;;;4954960;29;20046;-75
2023/06/10 08:05:14;;;;;;;12.40;5.35;;;31.80;76.10;;;;;;4954959;29;20028;-77
2023/06/10 08:07:40;;;;;;;16.42;5.57;;;31.50;76.60;;;;;;4936812;29;20050;-75
2023/06/10 08:10:07;;;;;;;13.27;5.68;;;31.40;77.50;;;;;;4955130;29;20032;-76
2023/06/10 08:12:34;;;;;;;11.38;5.40;;;31.50;78.50;;;;;;4954769;29;20039;-74
2023/06/10 08:15:00;;;;;;;10.45;5.05;;;31.60;77.90;;;;;;4955067;29;20032;-75
2023/06/10 08:17:25;;;;;;;10.90;5.03;;;31.80;77.50;;;;;;4955090;29;20035;-77
2023/06/10 08:19:51;;;;;;;10.75;5.00;;;32.10;77.10;;;;;;4954084;29;20039;-74
2023/06/10 08:22:16;;;;;;;10.25;5.70;;;32.50;76.50;;;;;;4935967;29;20034;-76
2023/06/10 08:24:42;;;;;;;10.43;5.35;;;33.00;76.10;;;;;;4953388;29;20487;-73
2023/06/10 08:27:07;;;;;;;10.95;5.07;;;33.60;75.30;;;;;;4954378;29;20042;-77
2023/06/10 08:29:33;;;;;;;10.90;5.07;;;33.90;74.70;;;;;;4954695;29;20107;-74
2023/06/10 08:31:58;;;;;;;10.13;4.88;;;34.30;74.30;;;;;;4953890;29;20034;-73
2023/06/10 08:34:24;;;;;;;12.85;5.05;;;34.90;72.70;;;;;;4953919;29;20070;-78
2023/06/10 08:36:55;;;;;;;12.50;5.30;;;35.60;72.20;;;;;;4954306;29;20114;-75
2023/06/10 08:39:22;;;;;;;10.63;5.28;;;36.10;71.50;;;;;;4954015;29;20134;-75
2023/06/10 08:41:56;;;;;;;10.30;5.35;;;36.50;70.80;;;;;;4954499;29;20063;-77
2023/06/10 08:44:29;;;;;;;12.93;5.18;;;36.90;70.30;;;;;;4954886;29;20039;-74
2023/06/10 08:47:00;;;;;;;9.15;5.18;;;37.30;69.50;;;;;;4954641;29;20387;-75
2023/06/10 08:49:29;;;;;;;9.18;5.10;;;37.70;69.30;;;;;;4954423;29;20035;-78
2023/06/10 08:51:58;;;;;;;12.65;5.95;;;38.00;68.00;;;;;;4954118;29;20103;-72
2023/06/10 08:54:27;;;;;;;18.23;10.10;;;38.20;67.60;;;;;;4954190;28;20035;-72
2023/06/10 08:56:55;;;;;;;10.45;5.32;;;38.20;67.50;;;;;;4954032;28;20062;-75
2023/06/10 08:59:21;;;;;;;11.05;5.93;;;38.30;67.40;;;;;;4936891;29;20035;-75
2023/06/10 09:01:47;;;;;;;11.32;5.05;;;38.20;67.30;;;;;;4954309;29;20435;-76
2023/06/10 09:04:13;;;;;;;8.60;5.32;;;38.50;67.30;;;;;;4937133;29;20098;-79
2023/06/10 09:06:40;;;;;;;12.30;5.18;;;38.80;66.90;;;;;;4953761;28;20432;-75
2023/06/10 09:09:07;;;;;;;8.70;4.68;;;38.90;66.30;;;;;;4954581;29;20463;-75
2023/06/10 09:11:33;;;;;;;9.88;5.13;;;39.00;66.10;;;;;;4954323;29;20039;-74
2023/06/10 09:13:59;;;;;;;8.93;4.90;;;39.00;65.60;;;;;;4954433;29;20030;-77
2023/06/10 09:16:25;;;;;;;11.25;4.80;;;38.90;65.80;;;;;;4954533;29;20031;-73
2023/06/10 09:18:54;;;;;;;10.63;5.03;;;38.80;65.50;;;;;;4938007;29;20098;-74
2023/06/10 09:21:22;;;;;;;8.13;4.68;;;38.90;64.70;;;;;;4958090;29;20035;-72
2023/06/10 09:23:48;;;;;;;12.15;5.25;;;38.70;64.80;;;;;;4958077;28;20799;-76
2023/06/10 09:26:13;;;;;;;8.88;4.80;;;38.50;64.80;;;;;;4940539;29;20124;-75
2023/06/10 09:28:42;;;;;;;8.10;4.70;;;38.40;64.70;;;;;;4957873;29;20050;-75
2023/06/10 09:31:08;;;;;;;9.70;4.43;;;38.50;65.10;;;;;;4958008;29;20031;-74
2023/06/10 09:33:37;;;;;;;7.75;4.78;;;38.90;64.40;;;;;;4956012;29;20019;-74
2023/06/10 09:36:03;;;;;;;11.15;5.05;;;39.30;63.90;;;;;;4954650;29;20027;-78
2023/06/10 09:38:31;;;;;;;8.73;4.60;;;39.70;63.60;;;;;;4956904;29;20387;-74
2023/06/10 09:40:56;;;;;;;10.45;4.70;;;40.00;62.90;;;;;;4956518;29;20023;-75
2023/06/10 09:43:22;;;;;;;9.15;4.75;;;40.00;62.50;;;;;;4957392;29;20054;-75
2023/06/10 09:45:54;;;;;;;7.70;4.57;;;40.00;62.30;;;;;;4957834;29;20110;-73
2023/06/10 09:48:19;;;;;;;9.05;4.40;;;39.80;62.10;;;;;;4957432;29;20066;-74
2023/06/10 09:50:46;;;;;;;7.32;4.38;;;39.70;62.30;;;;;;4940734;29;20031;-75
2023/06/10 09:53:12;;;;;;;6.47;4.10;;;39.70;62.80;;;;;;4957246;29;20077;-74
2023/06/10 09:55:39;;;;;;;6.80;4.78;;;39.90;62.90;;;;;;4956934;29;20067;-74
2023/06/10 09:58:04;;;;;;;10.68;4.57;;;40.10;62.60;;;;;;4957236;29;20035;-74
2023/06/10 10:00:36;;;;;;;9.93;4.80;;;40.10;62.20;;;;;;4957562;29;20031;-73
2023/06/10 10:03:02;;;;;;;12.30;5.15;;;40.00;62.10;;;;;;4957415;29;20063;-75
2023/06/10 10:05:29;;;;;;;9.95;4.50;;;39.90;62.60;;;;;;4957556;29;20054;-75
2023/06/10 10:07:56;;;;;;;8.27;4.30;;;39.90;62.10;;;;;;4956824;29;20599;-74
2023/06/10 10:10:22;;;;;;;8.93;4.70;;;40.00;61.10;;;;;;4939846;29;20395;-73
2023/06/10 10:12:50;;;;;;;9.25;4.55;;;40.20;61.60;;;;;;4957269;29;20102;-73
2023/06/10 10:15:17;;;;;;;6.50;4.13;;;40.50;61.30;;;;;;4956645;29;20024;-74
2023/06/10 10:18:06;;;;;;;8.05;4.85;;;40.60;60.50;;;;;;4957020;29;20024;-76
2023/06/10 10:20:34;;;;;;;8.75;4.78;;;40.30;60.30;;;;;;4957174;29;20028;-76
2023/06/10 10:23:03;;;;;;;9.00;4.35;;;40.20;61.10;;;;;;4957330;29;20104;-75
2023/06/10 10:25:37;;;;;;;10.55;4.63;;;40.50;61.20;;;;;;4957115;29;20032;-77
2023/06/10 10:28:12;;;;;;;9.75;5.07;;;40.90;60.60;;;;;;4954103;29;20043;-76
2023/06/10 10:30:44;;;;;;;7.78;4.93;;;41.40;59.80;;;;;;4940948;28;20035;-74
2023/06/10 10:33:16;;;;;;;8.82;4.20;;;41.60;59.80;;;;;;4937113;29;20039;-74
2023/06/10 10:35:43;;;;;;;11.68;4.70;;;41.60;59.20;;;;;;4937295;29;20035;-74
2023/06/10 10:38:09;;;;;;;8.77;4.07;;;41.40;59.40;;;;;;4937019;29;20035;-77
2023/06/10 10:40:36;;;;;;;6.30;4.32;;;41.40;59.80;;;;;;4937384;29;20106;-78
2023/06/10 10:43:02;;;;;;;8.52;4.70;;;41.50;60.00;;;;;;4937228;29;20365;-75
2023/06/10 10:45:29;;;;;;;8.40;4.55;;;41.40;59.80;;;;;;4936436;29;20055;-76
2023/06/10 10:47:56;;;;;;;8.18;4.22;;;41.20;59.60;;;;;;4937433;29;20030;-73
2023/06/10 10:50:22;;;;;;;7.43;3.88;;;41.30;59.80;;;;;;4937134;29;20114;-73
2023/06/10 10:52:53;;;;;;;8.30;4.35;;;41.40;59.10;;;;;;4919912;29;20040;-73
2023/06/10 10:55:19;;;;;;;11.50;4.40;;;41.30;58.80;;;;;;4937297;29;20023;-73
2023/06/10 10:57:54;;;;;;;8.00;4.13;;;41.10;59.20;;;;;;4937213;29;20071;-74
2023/06/10 11:00:44;;;;;;;9.73;4.47;;;41.30;58.80;;;;;;4935852;29;20035;-77
2023/06/10 11:03:16;;;;;;;9.18;4.35;;;41.20;58.90;;;;;;4952108;29;20110;-74
2023/06/10 11:05:47;;;;;;;11.65;4.20;;;41.10;59.20;;;;;;4956140;29;20041;-74
2023/06/10 11:08:32;;;;;;;7.93;4.15;;;41.10;58.40;;;;;;4955833;29;20054;-76
2023/06/10 11:10:57;;;;;;;8.60;4.60;;;41.10;58.20;;;;;;4956130;29;20068;-75
2023/06/10 11:13:24;;;;;;;10.32;4.13;;;41.20;58.40;;;;;;4956016;29;20066;-73
2023/06/10 11:15:50;;;;;;;11.18;4.38;;;41.00;58.10;;;;;;4955703;29;20468;-77
2023/06/10 11:18:38;;;;;;;6.78;4.53;;;40.90;58.30;;;;;;4955806;29;20071;-74
2023/06/10 11:21:04;;;;;;;9.20;4.30;;;40.70;58.20;;;;;;4955327;29;20035;-74
2023/06/10 11:23:40;;;;;;;10.20;3.72;;;40.70;58.80;;;;;;4955626;29;20356;-74
2023/06/10 11:26:30;;;;;;;8.43;4.20;;;40.70;58.20;;;;;;4953124;29;20039;-76
2023/06/10 11:28:56;;;;;;;11.27;4.70;;;40.70;58.10;;;;;;4955875;29;20089;-73
2023/06/10 11:31:29;;;;;;;9.98;4.40;;;41.00;57.70;;;;;;4955249;29;20035;-74
2023/06/10 11:33:57;;;;;;;7.22;4.05;;;41.00;58.00;;;;;;4955840;29;20431;-77
2023/06/10 11:36:23;;;;;;;7.68;4.18;;;41.10;57.30;;;;;;4954987;29;20054;-75
2023/06/10 11:38:51;;;;;;;7.43;4.15;;;41.10;57.60;;;;;;4955471;29;20126;-75
2023/06/10 11:41:17;;;;;;;8.27;4.13;;;41.10;57.90;;;;;;4955136;28;20040;-74
2023/06/10 11:43:44;;;;;;;10.75;4.60;;;41.10;57.80;;;;;;4955142;29;20031;-76
2023/06/10 11:46:11;;;;;;;8.18;4.25;;;41.00;58.60;;;;;;4955157;29;20038;-76
2023/06/10 11:48:36;;;;;;;7.68;4.03;;;41.00;57.90;;;;;;4953961;29;20035;-75
2023/06/10 11:51:09;;;;;;;8.02;3.78;;;40.90;57.50;;;;;;4936800;29;20166;-75
2023/06/10 11:53:35;;;;;;;7.38;4.00;;;41.00;57.50;;;;;;4955308;29;20031;-73
2023/06/10 11:56:00;;;;;;;8.55;3.97;;;41.20;57.70;;;;;;4937885;29;20360;-73
2023/06/10 11:58:26;;;;;;;7.25;4.00;;;41.30;57.50;;;;;;4954906;29;20047;-73
2023/06/10 12:00:56;;;;;;;10.45;4.25;;;41.40;57.50;;;;;;4954747;29;20039;-78
2023/06/10 12:03:25;;;;;;;9.55;3.78;;;41.50;56.60;;;;;;4954803;29;20395;-75
2023/06/10 12:05:58;;;;;;;8.45;4.10;;;41.40;57.00;;;;;;4937163;29;20039;-74
2023/06/10 12:08:24;;;;;;;9.13;4.13;;;41.20;56.40;;;;;;4954783;29;20020;-75
2023/06/10 12:10:50;;;;;;;9.82;4.13;;;41.30;57.00;;;;;;4954477;29;20064;-74
2023/06/10 12:13:17;;;;;;;7.80;4.20;;;41.20;56.80;;;;;;4955029;29;20027;-75
2023/06/10 12:15:44;;;;;;;9.93;4.40;;;41.10;56.80;;;;;;4954604;29;20034;-74
2023/06/10 12:18:20;;;;;;;8.52;3.88;;;41.10;56.60;;;;;;4954897;29;20031;-74
2023/06/10 12:20:45;;;;;;;14.18;4.15;;;41.10;57.00;;;;;;4954751;29;20054;-74
2023/06/10 12:23:12;;;;;;;8.15;4.00;;;41.40;56.90;;;;;;4955429;29;20070;-74
2023/06/10 12:25:38;;;;;;;6.55;3.70;;;41.60;56.50;;;;;;4953597;29;20482;-74
2023/06/10 12:28:04;;;;;;;8.75;4.43;;;41.70;56.40;;;;;;4954883;29;20456;-75
2023/06/10 12:30:31;;;;;;;11.10;4.50;;;41.60;56.00;;;;;;4954497;29;20035;-74
2023/06/10 12:32:57;;;;;;;7.18;3.90;;;41.40;56.20;;;;;;4954620;29;20460;-76
2023/06/10 12:35:25;;;;;;;8.95;4.15;;;41.30;55.80;;;;;;4954655;29;20031;-74
2023/06/10 12:38:01;;;;;;;6.78;4.10;;;41.20;55.40;;;;;;4937222;29;20039;-75
2023/06/10 12:40:29;;;;;;;7.90;3.75;;;40.90;56.10;;;;;;4937537;29;20028;-75